Time;durP1;ratioP1;P1;durP2;ratioP2;P2;SDS_P1;SDS_P2;PMS_P1;PMS_P2;Temp;Humidity;BMP_temperature;BMP_pressure;BME280_temperature;BME280_humidity;BME280_pressure;Samples;Min_cycle;Max_cycle;Signal;HPM_P1;HPM_P2
2023/01/16 00:01:41;;;;;;;59.85;3.80;;;;;;;;;;5072031;28;20209;-69
2023/01/16 00:04:08;;;;;;;63.15;3.38;;;;;;;;;;5072022;28;20570;-70
2023/01/16 00:06:36;;;;;;;58.35;3.50;;;;;;;;;;5072218;28;20215;-70
2023/01/16 00:09:04;;;;;;;58.25;3.47;;;;;;;;;;5071284;28;20208;-70
2023/01/16 00:11:31;;;;;;;59.47;3.70;;;;;;;;;;5072041;28;20588;-70
2023/01/16 00:13:59;;;;;;;58.55;3.40;;;;;;;;;;5072050;28;20211;-70
2023/01/16 00:16:26;;;;;;;59.42;3.80;;;;;;;;;;5071821;28;20212;-70
2023/01/16 00:18:53;;;;;;;61.50;3.75;;;;;;;;;;5071020;28;20207;-70
2023/01/16 00:21:21;;;;;;;58.45;3.38;;;;;;;;;;5072021;28;20576;-70
2023/01/16 00:23:48;;;;;;;62.10;3.97;;;;;;;;;;5071846;28;20247;-70
2023/01/16 00:26:16;;;;;;;59.22;3.67;;;;;;;;;;5072014;28;20593;-70
2023/01/16 00:28:44;;;;;;;59.05;3.20;;;;;;;;;;5071129;28;20209;-70
2023/01/16 00:31:11;;;;;;;59.22;2.95;;;;;;;;;;5071767;28;20205;-70
2023/01/16 00:33:38;;;;;;;60.97;3.90;;;;;;;;;;5072018;28;20557;-70
2023/01/16 00:36:06;;;;;;;62.20;4.13;;;;;;;;;;5071789;28;20597;-70
2023/01/16 00:38:33;;;;;;;59.65;3.28;;;;;;;;;;5071128;28;20231;-70
2023/01/16 00:41:00;;;;;;;64.32;4.40;;;;;;;;;;5075665;28;20326;-70
2023/01/16 00:43:29;;;;;;;58.35;3.33;;;;;;;;;;5078208;28;20679;-70
2023/01/16 00:45:56;;;;;;;59.70;3.45;;;;;;;;;;5078093;28;20208;-70
2023/01/16 00:48:23;;;;;;;61.22;4.20;;;;;;;;;;5077919;28;20201;-70
2023/01/16 00:50:50;;;;;;;58.67;3.35;;;;;;;;;;5077757;28;20214;-70
2023/01/16 00:53:18;;;;;;;59.60;3.63;;;;;;;;;;5078124;28;20323;-70
2023/01/16 00:55:45;;;;;;;60.17;3.40;;;;;;;;;;5078236;28;20209;-70
2023/01/16 00:58:12;;;;;;;58.95;3.00;;;;;;;;;;5078071;28;20225;-70
2023/01/16 01:00:40;;;;;;;60.30;3.45;;;;;;;;;;5077321;28;20213;-70
2023/01/16 01:03:08;;;;;;;61.90;3.53;;;;;;;;;;5077991;28;20230;-70
2023/01/16 01:05:36;;;;;;;61.25;3.17;;;;;;;;;;5078216;28;20669;-70
2023/01/16 01:08:03;;;;;;;61.42;3.55;;;;;;;;;;5077904;28;20204;-70
2023/01/16 01:10:31;;;;;;;57.85;3.00;;;;;;;;;;5077183;28;20208;-70
2023/01/16 01:12:58;;;;;;;59.55;3.10;;;;;;;;;;5078053;28;20493;-70
2023/01/16 01:15:25;;;;;;;60.95;3.55;;;;;;;;;;5077883;28;20313;-71
2023/01/16 01:17:54;;;;;;;61.33;3.20;;;;;;;;;;5078216;28;20232;-70
2023/01/16 01:20:21;;;;;;;60.20;3.38;;;;;;;;;;5077353;28;20220;-70
2023/01/16 01:22:48;;;;;;;60.63;3.38;;;;;;;;;;5077940;28;20232;-70
2023/01/16 01:25:15;;;;;;;58.28;2.70;;;;;;;;;;5077853;28;20211;-70
2023/01/16 01:27:42;;;;;;;61.40;3.05;;;;;;;;;;5077910;28;20204;-70
2023/01/16 01:30:10;;;;;;;59.40;3.50;;;;;;;;;;5077262;28;20208;-70
2023/01/16 01:32:37;;;;;;;63.20;3.30;;;;;;;;;;5077643;28;20231;-70
2023/01/16 01:35:07;;;;;;;59.05;3.15;;;;;;;;;;5078016;28;20204;-70
2023/01/16 01:37:34;;;;;;;58.60;3.50;;;;;;;;;;5077597;28;20259;-70
2023/01/16 01:40:02;;;;;;;58.28;3.30;;;;;;;;;;5076887;28;20205;-70
2023/01/16 01:42:45;;;;;;;58.22;2.95;;;;;;;;;;5077837;28;20234;-70
2023/01/16 01:45:16;;;;;;;58.38;2.90;;;;;;;;;;5077629;28;20204;-70
2023/01/16 01:47:48;;;;;;;59.28;3.30;;;;;;;;;;5077607;28;20210;-70
2023/01/16 01:50:19;;;;;;;61.10;3.00;;;;;;;;;;5076981;28;20254;-70
2023/01/16 01:52:46;;;;;;;59.78;3.15;;;;;;;;;;5074247;28;20245;-70
2023/01/16 01:55:14;;;;;;;58.17;3.38;;;;;;;;;;5074317;28;20205;-70
2023/01/16 01:57:43;;;;;;;61.80;4.07;;;;;;;;;;5074397;28;20338;-70
2023/01/16 02:00:11;;;;;;;60.08;3.70;;;;;;;;;;5073878;28;20215;-69
2023/01/16 02:02:41;;;;;;;58.65;3.30;;;;;;;;;;5074435;28;20233;-70
2023/01/16 02:05:09;;;;;;;58.72;3.28;;;;;;;;;;5074097;28;20204;-70
2023/01/16 02:07:38;;;;;;;60.80;3.67;;;;;;;;;;5074456;28;20201;-70
2023/01/16 02:10:12;;;;;;;60.42;4.35;;;;;;;;;;5073451;28;20216;-70
2023/01/16 02:12:39;;;;;;;61.10;3.63;;;;;;;;;;5074167;28;20228;-70
2023/01/16 02:15:06;;;;;;;60.50;3.47;;;;;;;;;;5074091;28;20219;-70
2023/01/16 02:20:20;;;;;;;63.90;3.45;;;;;;;;;;5073326;28;20200;-70
2023/01/16 02:23:08;;;;;;;58.97;3.88;;;;;;;;;;5074015;28;20235;-70
2023/01/16 02:25:50;;;;;;;59.75;3.40;;;;;;;;;;5073819;28;20215;-70
2023/01/16 02:28:41;;;;;;;58.72;3.65;;;;;;;;;;5073691;28;20672;-70
2023/01/16 02:31:14;;;;;;;60.40;3.42;;;;;;;;;;5017365;28;20220;-70
2023/01/16 02:33:56;;;;;;;58.25;3.40;;;;;;;;;;5073736;28;20232;-70
2023/01/16 02:36:28;;;;;;;60.33;3.95;;;;;;;;;;5071321;28;20683;-70
2023/01/16 02:38:57;;;;;;;59.25;3.88;;;;;;;;;;5068982;28;20620;-70
2023/01/16 02:41:31;;;;;;;59.92;3.50;;;;;;;;;;5073710;28;20206;-70
2023/01/16 02:44:04;;;;;;;59.55;3.60;;;;;;;;;;5073579;28;20211;-70
2023/01/16 02:46:34;;;;;;;59.33;3.83;;;;;;;;;;5073789;28;20577;-70
2023/01/16 02:49:04;;;;;;;62.70;3.80;;;;;;;;;;5072587;28;20206;-70
2023/01/16 02:51:36;;;;;;;59.67;3.75;;;;;;;;;;5073065;28;20229;-70
2023/01/16 02:54:10;;;;;;;59.97;3.72;;;;;;;;;;5073335;28;20206;-70
2023/01/16 02:56:41;;;;;;;59.45;4.00;;;;;;;;;;5073170;28;20212;-70
2023/01/16 02:59:09;;;;;;;61.17;3.75;;;;;;;;;;5072570;28;20232;-70
2023/01/16 03:01:40;;;;;;;58.20;3.90;;;;;;;;;;5073243;28;20213;-70
2023/01/16 03:04:27;;;;;;;58.95;3.83;;;;;;;;;;5073132;28;20210;-70
2023/01/16 03:07:01;;;;;;;59.00;4.43;;;;;;;;;;5072827;28;20584;-70
2023/01/16 03:09:34;;;;;;;60.30;4.07;;;;;;;;;;5072221;28;20210;-70
2023/01/16 03:12:16;;;;;;;59.70;3.78;;;;;;;;;;5073038;28;20226;-70
2023/01/16 03:14:47;;;;;;;57.88;3.40;;;;;;;;;;5072781;28;20700;-70
2023/01/16 03:17:26;;;;;;;59.28;3.65;;;;;;;;;;5072804;28;20209;-70
2023/01/16 03:19:57;;;;;;;58.80;3.63;;;;;;;;;;5072061;28;20303;-70
2023/01/16 03:22:26;;;;;;;60.85;3.90;;;;;;;;;;5072757;28;20230;-70
2023/01/16 03:25:00;;;;;;;59.65;3.72;;;;;;;;;;5072560;28;20221;-70
2023/01/16 03:27:32;;;;;;;60.13;4.13;;;;;;;;;;5072861;28;20200;-70
2023/01/16 03:30:05;;;;;;;60.25;3.63;;;;;;;;;;5071799;28;20210;-70
2023/01/16 03:32:36;;;;;;;59.00;3.75;;;;;;;;;;5072465;28;20226;-70
2023/01/16 03:35:07;;;;;;;60.03;3.40;;;;;;;;;;5072592;28;20244;-69
2023/01/16 03:37:40;;;;;;;59.35;3.60;;;;;;;;;;5072410;28;20258;-69
2023/01/16 03:40:09;;;;;;;59.55;3.45;;;;;;;;;;5071537;28;20211;-69
2023/01/16 03:42:38;;;;;;;60.30;3.70;;;;;;;;;;5072481;28;20228;-69
2023/01/16 03:45:07;;;;;;;61.30;4.05;;;;;;;;;;5072654;28;20231;-69
2023/01/16 03:47:40;;;;;;;60.55;3.88;;;;;;;;;;5072221;28;20218;-69
2023/01/16 03:50:08;;;;;;;59.97;3.70;;;;;;;;;;5071928;28;20664;-69
2023/01/16 03:52:37;;;;;;;59.08;3.70;;;;;;;;;;5072222;28;20223;-69
2023/01/16 03:55:07;;;;;;;61.80;4.00;;;;;;;;;;5072440;28;20549;-69
2023/01/16 03:57:38;;;;;;;58.40;3.70;;;;;;;;;;5072264;28;20207;-69
2023/01/16 04:00:06;;;;;;;58.33;3.63;;;;;;;;;;5071445;28;20215;-69
2023/01/16 04:02:39;;;;;;;59.13;4.45;;;;;;;;;;5072057;28;20316;-71
2023/01/16 04:05:09;;;;;;;58.22;3.40;;;;;;;;;;5071984;28;20211;-71
2023/01/16 04:07:39;;;;;;;60.05;3.90;;;;;;;;;;5071867;28;20208;-69
2023/01/16 04:10:08;;;;;;;59.92;3.88;;;;;;;;;;5071172;28;20207;-69
2023/01/16 04:12:36;;;;;;;60.50;3.70;;;;;;;;;;5071923;28;20228;-69
2023/01/16 04:15:05;;;;;;;59.20;4.05;;;;;;;;;;5070917;28;20724;-69
2023/01/16 04:17:32;;;;;;;61.20;4.05;;;;;;;;;;5071968;28;20207;-69
2023/01/16 04:19:59;;;;;;;61.65;4.20;;;;;;;;;;5071204;28;20204;-69
2023/01/16 04:22:29;;;;;;;59.05;3.85;;;;;;;;;;5071615;28;20232;-69
2023/01/16 04:24:57;;;;;;;59.95;3.28;;;;;;;;;;5071824;28;20224;-69
2023/01/16 04:27:24;;;;;;;59.50;4.07;;;;;;;;;;5071721;28;20216;-69
2023/01/16 04:29:51;;;;;;;58.03;3.30;;;;;;;;;;5070985;28;20685;-69
2023/01/16 04:32:18;;;;;;;58.53;3.95;;;;;;;;;;5071533;28;20234;-69
2023/01/16 04:34:45;;;;;;;58.88;3.47;;;;;;;;;;5071924;28;20589;-69
2023/01/16 04:37:13;;;;;;;59.42;3.58;;;;;;;;;;5071639;28;20206;-69
2023/01/16 04:39:42;;;;;;;58.83;3.65;;;;;;;;;;5070777;28;20222;-71
2023/01/16 04:42:09;;;;;;;61.15;3.30;;;;;;;;;;5071557;28;20224;-71
2023/01/16 04:44:36;;;;;;;59.58;4.22;;;;;;;;;;5071515;28;20208;-71
2023/01/16 04:47:03;;;;;;;59.40;4.07;;;;;;;;;;5071597;28;20205;-71
2023/01/16 04:49:30;;;;;;;59.28;3.60;;;;;;;;;;5070720;28;20227;-71
2023/01/16 04:51:58;;;;;;;61.17;4.20;;;;;;;;;;5071756;28;20229;-71
2023/01/16 04:54:25;;;;;;;58.40;3.50;;;;;;;;;;5071525;28;20302;-71
2023/01/16 04:56:54;;;;;;;59.70;4.53;;;;;;;;;;5071512;28;20222;-69
2023/01/16 04:59:21;;;;;;;59.58;4.05;;;;;;;;;;5070477;28;20693;-69
2023/01/16 05:01:48;;;;;;;63.35;4.00;;;;;;;;;;5071532;28;20203;-69
2023/01/16 05:04:17;;;;;;;59.38;3.90;;;;;;;;;;5071426;28;20672;-71
2023/01/16 05:06:44;;;;;;;60.58;4.53;;;;;;;;;;5071556;28;20212;-71
2023/01/16 05:09:11;;;;;;;62.15;4.20;;;;;;;;;;5071198;28;20207;-71
2023/01/16 05:11:38;;;;;;;59.92;3.80;;;;;;;;;;5071348;28;20588;-71
2023/01/16 05:14:07;;;;;;;59.00;3.75;;;;;;;;;;5071256;28;20205;-71
2023/01/16 05:16:35;;;;;;;60.80;4.07;;;;;;;;;;5071447;28;20500;-71
2023/01/16 05:19:02;;;;;;;59.00;4.43;;;;;;;;;;5070638;28;20610;-69
2023/01/16 05:21:29;;;;;;;62.60;5.53;;;;;;;;;;5071360;28;20211;-69
2023/01/16 05:23:56;;;;;;;59.78;3.80;;;;;;;;;;5071261;28;20609;-69
2023/01/16 05:26:23;;;;;;;59.70;4.07;;;;;;;;;;5071384;28;20203;-69
2023/01/16 05:28:50;;;;;;;61.53;4.13;;;;;;;;;;5073770;28;20203;-69
2023/01/16 05:31:19;;;;;;;62.50;4.85;;;;;;;;;;5075145;28;20205;-69
2023/01/16 05:33:46;;;;;;;61.28;4.70;;;;;;;;;;5074911;28;20236;-69
2023/01/16 05:36:13;;;;;;;62.75;4.90;;;;;;;;;;5075140;28;20230;-69
2023/01/16 05:38:40;;;;;;;58.80;4.30;;;;;;;;;;5073971;28;20221;-69
2023/01/16 05:41:07;;;;;;;59.40;5.00;;;;;;;;;;5074844;28;20470;-69
2023/01/16 05:43:34;;;;;;;60.63;4.38;;;;;;;;;;5074912;28;20658;-71
2023/01/16 05:46:02;;;;;;;62.15;4.60;;;;;;;;;;5074935;28;20217;-71
2023/01/16 05:48:32;;;;;;;59.22;4.05;;;;;;;;;;5074633;28;20575;-71
2023/01/16 05:50:59;;;;;;;59.55;4.43;;;;;;;;;;5074624;28;20301;-71
2023/01/16 05:53:27;;;;;;;58.88;4.20;;;;;;;;;;5074494;28;20246;-71
2023/01/16 05:55:55;;;;;;;63.30;4.57;;;;;;;;;;5074795;28;20215;-71
2023/01/16 05:58:22;;;;;;;60.03;4.60;;;;;;;;;;5074323;28;20242;-71
2023/01/16 06:00:49;;;;;;;59.50;4.43;;;;;;;;;;5073732;28;20218;-71
2023/01/16 06:03:17;;;;;;;60.35;4.63;;;;;;;;;;5074293;28;20706;-71
2023/01/16 06:05:45;;;;;;;60.25;4.60;;;;;;;;;;5074385;28;20259;-72
2023/01/16 06:08:12;;;;;;;59.17;3.90;;;;;;;;;;5074164;28;20587;-71
2023/01/16 06:10:39;;;;;;;59.45;4.32;;;;;;;;;;5073744;28;20205;-71
2023/01/16 06:13:06;;;;;;;59.22;4.28;;;;;;;;;;5074165;28;20241;-71
2023/01/16 06:15:34;;;;;;;60.72;4.50;;;;;;;;;;5074411;28;20212;-71
2023/01/16 06:18:01;;;;;;;63.10;4.63;;;;;;;;;;5074190;28;20210;-71
2023/01/16 06:20:28;;;;;;;61.53;4.65;;;;;;;;;;5073602;28;20227;-71
2023/01/16 06:22:56;;;;;;;62.60;4.78;;;;;;;;;;5074068;28;20311;-71
2023/01/16 06:25:23;;;;;;;60.08;5.07;;;;;;;;;;5073976;28;20213;-71
2023/01/16 06:27:52;;;;;;;62.63;4.70;;;;;;;;;;5074070;28;20233;-71
2023/01/16 06:30:19;;;;;;;60.38;5.00;;;;;;;;;;5073284;28;20582;-71
2023/01/16 06:32:50;;;;;;;60.67;5.25;;;;;;;;;;5073852;28;20230;-71
2023/01/16 06:35:17;;;;;;;57.78;3.45;;;;;;;;;;5073808;28;20301;-71
2023/01/16 06:37:44;;;;;;;60.28;4.15;;;;;;;;;;5073556;28;20210;-69
2023/01/16 06:40:13;;;;;;;59.20;4.50;;;;;;;;;;5072813;28;20222;-69
2023/01/16 06:42:40;;;;;;;59.58;4.00;;;;;;;;;;5073666;28;20227;-69
2023/01/16 06:45:07;;;;;;;58.40;3.60;;;;;;;;;;5073551;28;20210;-69
2023/01/16 06:47:34;;;;;;;60.22;3.80;;;;;;;;;;5073566;28;20212;-69
2023/01/16 06:50:01;;;;;;;60.00;3.90;;;;;;;;;;5072881;28;20681;-69
2023/01/16 06:52:28;;;;;;;59.50;4.45;;;;;;;;;;5073538;28;20234;-69
2023/01/16 06:54:56;;;;;;;58.40;3.80;;;;;;;;;;5073043;28;20210;-69
2023/01/16 06:57:24;;;;;;;60.10;4.57;;;;;;;;;;5073320;28;20682;-69
2023/01/16 06:59:51;;;;;;;60.50;3.85;;;;;;;;;;5072995;28;20232;-69
2023/01/16 07:02:18;;;;;;;58.78;4.03;;;;;;;;;;5072969;28;20227;-69
2023/01/16 07:04:46;;;;;;;61.22;4.40;;;;;;;;;;5073431;28;20208;-69
2023/01/16 07:07:13;;;;;;;58.42;4.03;;;;;;;;;;5073164;28;20208;-71
2023/01/16 07:09:40;;;;;;;60.38;4.10;;;;;;;;;;5072593;28;20212;-71
2023/01/16 07:12:07;;;;;;;58.60;4.30;;;;;;;;;;5066899;28;20221;-71
2023/01/16 07:22:49;;;;;;;60.63;3.80;;;;;;;;;;5052769;28;20228;-68
2023/01/16 07:25:18;;;;;;;62.00;4.30;;;;;;;;;;5052581;28;20227;-68
2023/01/16 07:27:47;;;;;;;58.20;3.28;;;;;;;;;;5052825;28;20203;-68
2023/01/16 07:30:16;;;;;;;59.58;3.88;;;;;;;;;;5051948;28;20204;-69
2023/01/16 07:32:43;;;;;;;57.95;3.25;;;;;;;;;;5052385;28;20226;-69
2023/01/16 07:35:11;;;;;;;61.92;3.80;;;;;;;;;;5052575;28;20685;-69
2023/01/16 07:37:38;;;;;;;59.08;3.65;;;;;;;;;;5052543;28;20208;-69
2023/01/16 07:40:06;;;;;;;58.40;3.50;;;;;;;;;;5051870;28;20236;-69
2023/01/16 07:42:33;;;;;;;64.32;4.05;;;;;;;;;;5052443;28;20221;-69
2023/01/16 07:45:00;;;;;;;60.38;4.13;;;;;;;;;;5052461;28;20205;-69
2023/01/16 07:47:28;;;;;;;61.40;4.13;;;;;;;;;;5052331;28;20685;-69
2023/01/16 07:49:56;;;;;;;59.90;4.28;;;;;;;;;;5050701;28;20200;-69
2023/01/16 07:52:24;;;;;;;59.22;3.65;;;;;;;;;;5051728;28;20240;-70
2023/01/16 07:54:51;;;;;;;59.97;4.22;;;;;;;;;;5048732;28;20307;-70
2023/01/16 07:57:18;;;;;;;61.35;3.90;;;;;;;;;;5052133;28;20304;-69
2023/01/16 07:59:45;;;;;;;59.42;3.70;;;;;;;;;;5051176;28;20257;-69
2023/01/16 08:02:12;;;;;;;62.65;4.43;;;;;;;;;;5051894;28;20229;-69
2023/01/16 08:04:41;;;;;;;59.03;4.07;;;;;;;;;;5051700;28;20685;-69
2023/01/16 08:07:08;;;;;;;60.22;3.80;;;;;;;;;;5051877;28;20212;-69
2023/01/16 08:09:35;;;;;;;60.75;3.90;;;;;;;;;;5059087;28;20196;-69
2023/01/16 08:12:02;;;;;;;59.80;4.47;;;;;;;;;;5052194;28;20224;-69
2023/01/16 08:14:29;;;;;;;58.97;3.33;;;;;;;;;;5051885;28;20701;-69
2023/01/16 08:16:56;;;;;;;61.72;3.90;;;;;;;;;;5051846;28;20204;-69
2023/01/16 08:19:23;;;;;;;61.75;3.95;;;;;;;;;;5050643;28;20225;-69
2023/01/16 08:21:52;;;;;;;58.90;3.70;;;;;;;;;;5051850;28;20213;-69
2023/01/16 08:24:19;;;;;;;60.80;3.72;;;;;;;;;;5051841;28;20214;-69
2023/01/16 08:26:46;;;;;;;58.90;3.22;;;;;;;;;;5051794;28;20212;-69
2023/01/16 08:29:13;;;;;;;59.72;3.83;;;;;;;;;;5051264;28;20213;-69
2023/01/16 08:31:40;;;;;;;58.17;3.20;;;;;;;;;;5051793;28;20216;-69
2023/01/16 08:34:07;;;;;;;60.78;3.60;;;;;;;;;;5051925;28;20212;-69
2023/01/16 08:36:34;;;;;;;57.80;3.00;;;;;;;;;;5052241;28;20205;-69
2023/01/16 08:39:03;;;;;;;64.50;3.70;;;;;;;;;;5051009;28;20206;-69
2023/01/16 08:52:33;;;;;;;59.10;3.55;;;;;;;;;;5052274;28;20217;-70
2023/01/16 08:55:02;;;;;;;60.20;3.80;;;;;;;;;;5052250;28;20255;-69
2023/01/16 08:57:29;;;;;;;59.08;3.38;;;;;;;;;;5052794;28;20208;-69
2023/01/16 08:59:56;;;;;;;80.90;17.98;;;;;;;;;;5051516;28;20222;-70
2023/01/16 09:02:24;;;;;;;69.47;9.85;;;;;;;;;;5055102;28;20221;-69
2023/01/16 09:04:51;;;;;;;60.25;4.85;;;;;;;;;;5056391;28;20610;-69
2023/01/16 09:07:18;;;;;;;59.90;4.35;;;;;;;;;;5056011;28;20206;-69
2023/01/16 09:09:45;;;;;;;62.85;6.05;;;;;;;;;;5055419;28;20206;-69
2023/01/16 09:14:59;;;;;;;61.92;4.38;;;;;;;;;;5055904;28;20204;-69
2023/01/16 09:17:27;;;;;;;75.82;12.65;;;;;;;;;;5055221;28;20252;-69
2023/01/16 09:19:54;;;;;;;90.90;20.90;;;;;;;;;;5054325;28;20237;-69
2023/01/16 09:22:21;;;;;;;67.93;10.00;;;;;;;;;;5055284;28;20233;-69
2023/01/16 09:24:48;;;;;;;71.80;11.43;;;;;;;;;;5055266;28;20235;-69
2023/01/16 09:27:18;;;;;;;59.58;4.30;;;;;;;;;;5055155;28;20212;-69
2023/01/16 09:29:45;;;;;;;59.97;4.10;;;;;;;;;;5054388;28;20205;-69
2023/01/16 09:32:12;;;;;;;63.50;4.78;;;;;;;;;;5054752;28;20232;-69
2023/01/16 09:34:41;;;;;;;64.25;6.80;;;;;;;;;;5055097;28;20213;-68
2023/01/16 09:37:08;;;;;;;58.45;2.90;;;;;;;;;;5054745;28;20209;-69
2023/01/16 09:39:35;;;;;;;58.90;3.50;;;;;;;;;;5054147;28;20226;-69
2023/01/16 09:44:55;;;;;;;58.17;2.90;;;;;;;;;;5054810;28;20204;-69
2023/01/16 09:47:24;;;;;;;58.10;2.90;;;;;;;;;;5054830;28;20206;-69
2023/01/16 09:49:53;;;;;;;58.50;2.55;;;;;;;;;;5053927;28;20198;-69
2023/01/16 10:00:58;;;;;;;57.90;3.10;;;;;;;;;;5049843;28;20720;-69
2023/01/16 10:03:25;;;;;;;57.80;2.65;;;;;;;;;;5054075;28;20689;-69
2023/01/16 10:05:56;;;;;;;57.88;2.60;;;;;;;;;;5054212;28;20220;-69
2023/01/16 10:08:26;;;;;;;57.75;2.72;;;;;;;;;;5054340;28;20233;-69
2023/01/16 10:10:56;;;;;;;57.08;2.40;;;;;;;;;;5053926;28;20320;-68
2023/01/16 10:13:48;;;;;;;57.27;2.50;;;;;;;;;;5053274;28;20644;-68
2023/01/16 10:16:21;;;;;;;59.80;2.77;;;;;;;;;;5054260;28;20940;-69
2023/01/16 10:18:54;;;;;;;57.38;2.80;;;;;;;;;;5053491;28;20462;-69
2023/01/16 10:21:29;;;;;;;57.37;2.70;;;;;;;;;;5054227;28;20261;-69
2023/01/16 10:24:02;;;;;;;58.05;2.75;;;;;;;;;;5053811;28;20988;-69
2023/01/16 10:26:30;;;;;;;57.97;2.80;;;;;;;;;;5054170;28;20210;-69
2023/01/16 10:29:02;;;;;;;58.47;3.33;;;;;;;;;;5053018;28;20209;-69
2023/01/16 10:31:32;;;;;;;57.80;3.40;;;;;;;;;;5053754;28;20447;-69
2023/01/16 10:34:02;;;;;;;57.37;2.70;;;;;;;;;;5053974;28;20446;-69
2023/01/16 10:36:30;;;;;;;57.70;3.00;;;;;;;;;;5053821;28;20440;-69
2023/01/16 10:38:58;;;;;;;57.95;3.10;;;;;;;;;;5052944;28;20440;-69
2023/01/16 10:49:53;;;;;;;57.47;2.60;;;;;;;;;;5052858;28;20914;-69
2023/01/16 10:52:21;;;;;;;58.30;2.83;;;;;;;;;;5053440;28;20222;-69
2023/01/16 10:54:49;;;;;;;62.10;2.80;;;;;;;;;;5053342;28;21068;-69
2023/01/16 10:57:16;;;;;;;58.67;3.45;;;;;;;;;;5053312;28;20546;-69
2023/01/16 10:59:46;;;;;;;57.73;3.23;;;;;;;;;;5052434;28;20210;-69
2023/01/16 11:02:18;;;;;;;57.60;2.57;;;;;;;;;;5053064;28;21012;-69
2023/01/16 11:04:45;;;;;;;58.97;3.27;;;;;;;;;;5053353;28;20460;-69
2023/01/16 11:07:17;;;;;;;57.72;2.80;;;;;;;;;;5053159;28;20453;-68
2023/01/16 11:09:45;;;;;;;57.08;2.55;;;;;;;;;;5052387;28;20212;-68
2023/01/16 11:20:38;;;;;;;61.17;3.15;;;;;;;;;;5052006;28;20594;-70
2023/01/16 11:23:06;;;;;;;56.97;2.77;;;;;;;;;;5052633;28;20232;-69
2023/01/16 11:25:34;;;;;;;57.50;2.50;;;;;;;;;;5052403;28;20467;-69
2023/01/16 11:28:03;;;;;;;57.70;2.80;;;;;;;;;;5051888;28;20212;-70
2023/01/16 11:30:32;;;;;;;57.30;2.70;;;;;;;;;;5051482;28;20444;-69
2023/01/16 11:33:07;;;;;;;59.10;2.87;;;;;;;;;;5051575;28;20486;-69
2023/01/16 11:35:35;;;;;;;57.42;2.85;;;;;;;;;;5051621;28;20452;-69
2023/01/16 11:38:03;;;;;;;60.20;3.20;;;;;;;;;;5051681;28;20579;-69
2023/01/16 11:40:32;;;;;;;58.17;2.70;;;;;;;;;;5051292;28;20476;-69
2023/01/16 11:46:07;;;;;;;57.27;2.73;;;;;;;;;;5052195;28;20490;-69
2023/01/16 11:48:44;;;;;;;59.93;4.10;;;;;;;;;;5051766;28;20571;-70
2023/01/16 11:51:14;;;;;;;57.05;2.70;;;;;;;;;;5052437;28;20498;-69
2023/01/16 11:53:44;;;;;;;59.87;2.73;;;;;;;;;;5052157;28;20221;-69
2023/01/16 11:56:26;;;;;;;56.93;2.43;;;;;;;;;;5051945;28;20971;-69
2023/01/16 11:59:06;;;;;;;58.00;3.60;;;;;;;;;;5051410;28;20459;-69
2023/01/16 12:02:15;;;;;;;58.95;2.55;;;;;;;;;;5052146;28;20541;-69
2023/01/16 12:04:25;;;;;;;56.50;2.43;;;;;;;;;;5051779;28;20206;-70
2023/01/16 12:06:58;;;;;;;58.33;2.50;;;;;;;;;;5051899;28;20541;-69
2023/01/16 12:09:40;;;;;;;58.47;2.83;;;;;;;;;;5051299;28;20525;-69
2023/01/16 12:15:13;;;;;;;58.97;2.63;;;;;;;;;;5052233;28;20438;-69
2023/01/16 12:17:59;;;;;;;57.00;2.77;;;;;;;;;;5051847;28;20451;-69
2023/01/16 12:20:29;;;;;;;60.57;3.00;;;;;;;;;;5044200;28;20498;-69
2023/01/16 12:23:14;;;;;;;56.57;2.37;;;;;;;;;;5051714;28;20482;-70
2023/01/16 12:25:50;;;;;;;57.80;2.70;;;;;;;;;;5051741;28;20460;-69
2023/01/16 12:28:22;;;;;;;57.70;2.13;;;;;;;;;;5051825;28;20495;-68
2023/01/16 12:31:07;;;;;;;57.70;2.40;;;;;;;;;;5051110;28;20444;-69
2023/01/16 12:33:38;;;;;;;58.93;2.50;;;;;;;;;;5051806;28;20670;-68
2023/01/16 12:36:10;;;;;;;57.67;2.67;;;;;;;;;;5051236;28;20444;-69
2023/01/16 12:38:38;;;;;;;57.40;2.47;;;;;;;;;;5051097;28;20464;-69
2023/01/16 12:44:08;;;;;;;57.47;2.60;;;;;;;;;;5051633;28;20419;-69
2023/01/16 12:46:37;;;;;;;57.00;2.37;;;;;;;;;;5051681;28;20448;-69
2023/01/16 12:49:13;;;;;;;56.87;2.20;;;;;;;;;;5050892;28;20989;-69
2023/01/16 12:51:47;;;;;;;58.47;2.70;;;;;;;;;;5051272;28;20450;-69
2023/01/16 12:54:24;;;;;;;56.97;2.20;;;;;;;;;;5051456;28;20448;-69
2023/01/16 12:56:57;;;;;;;59.70;2.57;;;;;;;;;;5051663;28;20451;-69
2023/01/16 12:59:26;;;;;;;57.37;2.80;;;;;;;;;;5050822;28;20444;-69
2023/01/16 13:01:57;;;;;;;56.40;2.60;;;;;;;;;;5051483;28;20492;-70
2023/01/16 13:04:28;;;;;;;57.47;2.40;;;;;;;;;;5051409;28;20506;-69
2023/01/16 13:06:57;;;;;;;57.20;2.43;;;;;;;;;;5051368;28;20450;-69
2023/01/16 13:09:28;;;;;;;57.70;2.43;;;;;;;;;;5050462;28;20462;-69
2023/01/16 13:14:55;;;;;;;56.87;2.50;;;;;;;;;;5051264;28;20559;-69
2023/01/16 13:17:24;;;;;;;57.60;2.43;;;;;;;;;;5051119;28;20455;-69
2023/01/16 13:19:53;;;;;;;58.33;2.70;;;;;;;;;;5050706;28;20452;-69
2023/01/16 13:22:25;;;;;;;58.47;2.80;;;;;;;;;;5051166;28;20496;-71
2023/01/16 13:24:56;;;;;;;57.40;2.60;;;;;;;;;;5051116;28;20456;-69
2023/01/16 13:27:25;;;;;;;57.00;2.37;;;;;;;;;;5051246;28;20444;-69
2023/01/16 13:29:56;;;;;;;57.87;2.37;;;;;;;;;;5050212;28;20455;-69
2023/01/16 13:32:27;;;;;;;57.97;2.60;;;;;;;;;;5051221;28;20538;-70
2023/01/16 13:34:58;;;;;;;58.03;2.63;;;;;;;;;;5051229;28;20444;-70
2023/01/16 13:37:36;;;;;;;58.17;2.60;;;;;;;;;;5051054;28;20984;-70
2023/01/16 13:40:20;;;;;;;56.87;2.27;;;;;;;;;;5050243;28;20945;-69
2023/01/16 13:42:53;;;;;;;57.17;2.47;;;;;;;;;;5050978;28;20476;-69
2023/01/16 13:48:12;;;;;;;57.43;2.67;;;;;;;;;;5051676;28;20419;-70
2023/01/16 13:50:39;;;;;;;57.80;2.30;;;;;;;;;;5053918;28;20451;-69
2023/01/16 13:53:09;;;;;;;59.37;2.17;;;;;;;;;;5054567;28;20475;-69
2023/01/16 13:55:39;;;;;;;57.27;2.30;;;;;;;;;;5054688;28;20458;-70
2023/01/16 13:58:10;;;;;;;57.13;2.20;;;;;;;;;;5054555;28;20452;-70
2023/01/16 14:00:39;;;;;;;58.00;2.50;;;;;;;;;;5053690;28;20448;-69
2023/01/16 14:03:20;;;;;;;57.17;2.20;;;;;;;;;;5054187;28;20465;-69
2023/01/16 14:05:54;;;;;;;57.23;2.30;;;;;;;;;;5054447;28;20452;-70
2023/01/16 14:11:17;;;;;;;57.20;2.67;;;;;;;;;;5054344;28;20931;-69
2023/01/16 14:13:45;;;;;;;57.67;2.50;;;;;;;;;;5054423;28;20468;-70
2023/01/16 14:16:35;;;;;;;56.90;2.43;;;;;;;;;;5054172;28;20448;-70
2023/01/16 14:19:02;;;;;;;57.80;2.83;;;;;;;;;;5053471;28;20535;-70
2023/01/16 14:21:40;;;;;;;57.37;2.37;;;;;;;;;;5053908;28;20480;-70
2023/01/16 14:24:12;;;;;;;58.57;2.57;;;;;;;;;;5053596;28;20573;-69
2023/01/16 14:26:42;;;;;;;57.40;2.17;;;;;;;;;;5053925;28;20547;-70
2023/01/16 14:29:15;;;;;;;56.47;2.10;;;;;;;;;;5053167;28;20456;-71
2023/01/16 14:31:43;;;;;;;57.30;2.60;;;;;;;;;;5053739;28;20440;-69
2023/01/16 14:34:16;;;;;;;57.07;1.93;;;;;;;;;;5053797;28;20463;-69
2023/01/16 14:36:46;;;;;;;56.27;2.13;;;;;;;;;;5054087;28;20821;-68
2023/01/16 14:39:29;;;;;;;56.97;2.30;;;;;;;;;;5053213;28;20506;-68
2023/01/16 14:56:27;;;;;;;57.47;2.50;;;;;;;;;;5053497;28;20462;-68
2023/01/16 14:58:55;;;;;;;57.37;2.70;;;;;;;;;;5052391;28;20459;-68
2023/01/16 15:04:16;;;;;;;58.07;2.53;;;;;;;;;;5042446;28;20433;-69
2023/01/16 15:06:45;;;;;;;57.37;2.47;;;;;;;;;;5053153;28;20955;-69
2023/01/16 15:09:15;;;;;;;57.90;2.57;;;;;;;;;;5052738;28;20451;-69
2023/01/16 15:11:46;;;;;;;57.70;2.40;;;;;;;;;;5053002;28;20471;-69
2023/01/16 15:14:27;;;;;;;57.10;2.53;;;;;;;;;;5053046;28;20456;-69
2023/01/16 15:22:40;;;;;;;57.03;2.90;;;;;;;;;;5028094;28;20480;-68
2023/01/16 15:25:11;;;;;;;57.27;2.80;;;;;;;;;;5053017;28;20856;-69
2023/01/16 15:27:40;;;;;;;59.85;3.30;;;;;;;;;;5052951;28;20462;-69
2023/01/16 15:30:10;;;;;;;58.27;2.90;;;;;;;;;;5051969;28;20757;-68
2023/01/16 15:32:52;;;;;;;58.80;3.47;;;;;;;;;;5052544;28;20542;-69
2023/01/16 15:35:22;;;;;;;62.40;3.70;;;;;;;;;;5052686;28;20498;-69
2023/01/16 15:37:51;;;;;;;58.67;2.90;;;;;;;;;;5052660;28;20494;-68
2023/01/16 15:40:23;;;;;;;57.33;2.70;;;;;;;;;;5051785;28;20959;-69
2023/01/16 15:48:26;;;;;;;57.67;3.20;;;;;;;;;;5052417;28;20477;-68
2023/01/16 15:50:55;;;;;;;57.70;2.67;;;;;;;;;;5051761;28;20448;-68
2023/01/16 15:53:23;;;;;;;58.90;3.00;;;;;;;;;;5052109;28;20476;-68
2023/01/16 15:55:51;;;;;;;58.30;2.87;;;;;;;;;;5052491;28;20458;-68
2023/01/16 15:58:21;;;;;;;58.10;3.10;;;;;;;;;;5052285;28;20826;-69
2023/01/16 16:00:54;;;;;;;57.77;2.87;;;;;;;;;;5051555;28;20462;-68
2023/01/16 16:03:22;;;;;;;57.80;2.77;;;;;;;;;;5052195;28;20464;-68
2023/01/16 16:05:51;;;;;;;63.57;7.27;;;;;;;;;;5052128;28;20449;-69
2023/01/16 16:08:19;;;;;;;57.55;2.92;;;;;;;;;;5052479;28;20464;-68
2023/01/16 16:13:33;;;;;;;58.00;3.30;;;;;;;;;;5052147;28;20522;-69
2023/01/16 16:18:53;;;;;;;57.28;2.80;;;;;;;;;;5051253;28;20204;-68
2023/01/16 16:21:20;;;;;;;57.92;2.72;;;;;;;;;;5051986;28;20220;-68
2023/01/16 16:23:54;;;;;;;58.08;2.80;;;;;;;;;;5051891;28;20232;-68
2023/01/16 16:26:22;;;;;;;58.10;3.00;;;;;;;;;;5051987;28;20209;-68
2023/01/16 16:28:53;;;;;;;58.25;2.70;;;;;;;;;;5051000;28;20216;-69
2023/01/16 16:31:24;;;;;;;58.25;2.75;;;;;;;;;;5052084;28;20296;-68